sensor_id;sensor_type;location;lat;lon;timestamp;P1;durP1;ratioP1;P2;durP2;ratioP2
21095;SDS011;10706;49.036;12.112;2023-04-16T00:00:06;14.30;;;6.00;;
21095;SDS011;10706;49.036;12.112;2023-04-16T00:02:32;14.70;;;6.20;;
21095;SDS011;10706;49.036;12.112;2023-04-16T00:04:58;14.90;;;6.43;;
21095;SDS011;10706;49.036;12.112;2023-04-16T00:07:24;12.67;;;5.77;;
21095;SDS011;10706;49.036;12.112;2023-04-16T00:09:49;12.73;;;5.77;;
21095;SDS011;10706;49.036;12.112;2023-04-16T00:12:15;12.27;;;5.73;;
21095;SDS011;10706;49.036;12.112;2023-04-16T00:14:41;11.77;;;5.47;;
21095;SDS011;10706;49.036;12.112;2023-04-16T00:17:07;10.77;;;5.30;;
21095;SDS011;10706;49.036;12.112;2023-04-16T00:19:34;15.10;;;5.30;;
21095;SDS011;10706;49.036;12.112;2023-04-16T00:22:00;14.00;;;5.60;;
21095;SDS011;10706;49.036;12.112;2023-04-16T00:24:26;11.90;;;5.30;;
21095;SDS011;10706;49.036;12.112;2023-04-16T00:26:51;12.17;;;5.40;;
21095;SDS011;10706;49.036;12.112;2023-04-16T00:29:17;14.43;;;5.60;;
21095;SDS011;10706;49.036;12.112;2023-04-16T00:31:43;11.47;;;4.93;;
21095;SDS011;10706;49.036;12.112;2023-04-16T00:34:09;13.13;;;4.83;;
21095;SDS011;10706;49.036;12.112;2023-04-16T00:36:34;11.07;;;4.63;;
21095;SDS011;10706;49.036;12.112;2023-04-16T00:39:00;12.40;;;5.07;;
21095;SDS011;10706;49.036;12.112;2023-04-16T00:41:26;11.87;;;5.93;;
21095;SDS011;10706;49.036;12.112;2023-04-16T00:43:52;12.30;;;4.87;;
21095;SDS011;10706;49.036;12.112;2023-04-16T00:46:18;12.63;;;4.70;;
21095;SDS011;10706;49.036;12.112;2023-04-16T00:48:45;11.90;;;4.70;;
21095;SDS011;10706;49.036;12.112;2023-04-16T00:51:12;14.47;;;5.47;;
21095;SDS011;10706;49.036;12.112;2023-04-16T00:53:38;11.33;;;4.50;;
21095;SDS011;10706;49.036;12.112;2023-04-16T00:56:05;14.00;;;4.80;;
21095;SDS011;10706;49.036;12.112;2023-04-16T00:58:32;12.20;;;5.20;;
21095;SDS011;10706;49.036;12.112;2023-04-16T01:00:59;13.10;;;5.37;;
21095;SDS011;10706;49.036;12.112;2023-04-16T01:03:38;12.73;;;5.37;;
21095;SDS011;10706;49.036;12.112;2023-04-16T01:06:11;11.57;;;4.97;;
21095;SDS011;10706;49.036;12.112;2023-04-16T01:08:37;12.87;;;5.17;;
21095;SDS011;10706;49.036;12.112;2023-04-16T01:11:03;14.90;;;5.60;;
21095;SDS011;10706;49.036;12.112;2023-04-16T01:13:29;14.03;;;4.90;;
21095;SDS011;10706;49.036;12.112;2023-04-16T01:15:55;10.83;;;4.83;;
21095;SDS011;10706;49.036;12.112;2023-04-16T01:18:21;13.40;;;5.17;;
21095;SDS011;10706;49.036;12.112;2023-04-16T01:20:48;11.83;;;5.43;;
21095;SDS011;10706;49.036;12.112;2023-04-16T01:23:15;12.70;;;5.27;;
21095;SDS011;10706;49.036;12.112;2023-04-16T01:25:44;13.03;;;5.10;;
21095;SDS011;10706;49.036;12.112;2023-04-16T01:28:11;12.77;;;4.40;;
21095;SDS011;10706;49.036;12.112;2023-04-16T01:30:37;10.60;;;4.80;;
21095;SDS011;10706;49.036;12.112;2023-04-16T01:33:02;11.63;;;4.87;;
21095;SDS011;10706;49.036;12.112;2023-04-16T01:35:30;10.07;;;4.53;;
21095;SDS011;10706;49.036;12.112;2023-04-16T01:37:55;11.50;;;4.37;;
21095;SDS011;10706;49.036;12.112;2023-04-16T01:40:21;13.83;;;5.33;;
21095;SDS011;10706;49.036;12.112;2023-04-16T01:42:47;11.67;;;4.67;;
21095;SDS011;10706;49.036;12.112;2023-04-16T01:45:13;11.80;;;4.60;;
21095;SDS011;10706;49.036;12.112;2023-04-16T01:47:39;13.03;;;5.17;;
21095;SDS011;10706;49.036;12.112;2023-04-16T01:50:05;13.97;;;5.37;;
21095;SDS011;10706;49.036;12.112;2023-04-16T01:52:31;12.93;;;5.07;;
21095;SDS011;10706;49.036;12.112;2023-04-16T01:54:57;14.03;;;5.20;;
21095;SDS011;10706;49.036;12.112;2023-04-16T01:57:23;13.17;;;5.07;;
21095;SDS011;10706;49.036;12.112;2023-04-16T01:59:48;13.37;;;5.30;;
21095;SDS011;10706;49.036;12.112;2023-04-16T02:02:14;11.67;;;4.87;;
21095;SDS011;10706;49.036;12.112;2023-04-16T02:04:43;13.20;;;5.63;;
21095;SDS011;10706;49.036;12.112;2023-04-16T02:07:10;12.43;;;4.80;;
21095;SDS011;10706;49.036;12.112;2023-04-16T02:09:36;11.50;;;4.90;;
21095;SDS011;10706;49.036;12.112;2023-04-16T02:12:04;13.07;;;4.90;;
21095;SDS011;10706;49.036;12.112;2023-04-16T02:14:30;14.90;;;5.07;;
21095;SDS011;10706;49.036;12.112;2023-04-16T02:16:57;13.10;;;5.10;;
21095;SDS011;10706;49.036;12.112;2023-04-16T02:19:24;13.23;;;4.67;;
21095;SDS011;10706;49.036;12.112;2023-04-16T02:21:50;11.20;;;4.50;;
21095;SDS011;10706;49.036;12.112;2023-04-16T02:24:17;11.13;;;4.60;;
21095;SDS011;10706;49.036;12.112;2023-04-16T02:26:43;11.40;;;4.70;;
21095;SDS011;10706;49.036;12.112;2023-04-16T02:29:09;10.87;;;4.90;;
21095;SDS011;10706;49.036;12.112;2023-04-16T02:31:35;10.40;;;4.27;;
21095;SDS011;10706;49.036;12.112;2023-04-16T02:34:01;11.73;;;4.63;;
21095;SDS011;10706;49.036;12.112;2023-04-16T02:36:27;10.83;;;4.50;;
21095;SDS011;10706;49.036;12.112;2023-04-16T02:38:53;10.03;;;4.07;;
21095;SDS011;10706;49.036;12.112;2023-04-16T02:41:19;11.60;;;4.40;;
21095;SDS011;10706;49.036;12.112;2023-04-16T02:43:45;11.13;;;4.43;;
21095;SDS011;10706;49.036;12.112;2023-04-16T02:46:11;12.07;;;4.27;;
21095;SDS011;10706;49.036;12.112;2023-04-16T02:48:36;11.27;;;4.23;;
21095;SDS011;10706;49.036;12.112;2023-04-16T02:51:02;10.53;;;4.70;;
21095;SDS011;10706;49.036;12.112;2023-04-16T02:53:28;12.00;;;4.90;;
21095;SDS011;10706;49.036;12.112;2023-04-16T02:55:54;10.70;;;4.07;;
21095;SDS011;10706;49.036;12.112;2023-04-16T02:58:20;10.33;;;3.97;;
21095;SDS011;10706;49.036;12.112;2023-04-16T03:00:48;11.27;;;4.07;;
21095;SDS011;10706;49.036;12.112;2023-04-16T03:03:14;10.83;;;4.37;;
21095;SDS011;10706;49.036;12.112;2023-04-16T03:05:40;11.47;;;4.70;;
21095;SDS011;10706;49.036;12.112;2023-04-16T03:08:06;10.40;;;4.53;;
21095;SDS011;10706;49.036;12.112;2023-04-16T03:10:32;12.40;;;4.80;;
21095;SDS011;10706;49.036;12.112;2023-04-16T03:13:01;10.97;;;4.57;;
21095;SDS011;10706;49.036;12.112;2023-04-16T03:15:28;11.83;;;4.87;;
21095;SDS011;10706;49.036;12.112;2023-04-16T03:17:55;11.57;;;4.53;;
21095;SDS011;10706;49.036;12.112;2023-04-16T03:20:20;12.57;;;4.97;;
21095;SDS011;10706;49.036;12.112;2023-04-16T03:22:47;11.67;;;4.70;;
21095;SDS011;10706;49.036;12.112;2023-04-16T03:25:13;15.90;;;4.93;;
21095;SDS011;10706;49.036;12.112;2023-04-16T03:27:39;15.77;;;5.07;;
21095;SDS011;10706;49.036;12.112;2023-04-16T03:30:05;13.57;;;5.50;;
21095;SDS011;10706;49.036;12.112;2023-04-16T03:32:32;11.63;;;4.90;;
21095;SDS011;10706;49.036;12.112;2023-04-16T03:34:58;13.43;;;5.03;;
21095;SDS011;10706;49.036;12.112;2023-04-16T03:37:24;12.20;;;4.63;;
21095;SDS011;10706;49.036;12.112;2023-04-16T03:39:50;13.93;;;5.70;;
21095;SDS011;10706;49.036;12.112;2023-04-16T03:42:15;13.70;;;5.60;;
21095;SDS011;10706;49.036;12.112;2023-04-16T03:44:41;13.37;;;5.27;;
21095;SDS011;10706;49.036;12.112;2023-04-16T03:47:07;10.83;;;4.47;;
21095;SDS011;10706;49.036;12.112;2023-04-16T03:49:33;12.83;;;4.83;;
21095;SDS011;10706;49.036;12.112;2023-04-16T03:51:58;11.37;;;4.50;;
21095;SDS011;10706;49.036;12.112;2023-04-16T03:54:24;11.63;;;4.37;;
21095;SDS011;10706;49.036;12.112;2023-04-16T03:56:50;11.53;;;4.43;;
21095;SDS011;10706;49.036;12.112;2023-04-16T03:59:16;12.00;;;4.47;;
21095;SDS011;10706;49.036;12.112;2023-04-16T04:01:42;11.17;;;4.43;;
21095;SDS011;10706;49.036;12.112;2023-04-16T04:04:08;11.60;;;4.23;;
21095;SDS011;10706;49.036;12.112;2023-04-16T04:06:34;14.83;;;5.30;;
21095;SDS011;10706;49.036;12.112;2023-04-16T04:09:00;12.63;;;4.47;;
21095;SDS011;10706;49.036;12.112;2023-04-16T04:11:26;12.57;;;5.00;;
21095;SDS011;10706;49.036;12.112;2023-04-16T04:13:52;12.53;;;4.80;;
21095;SDS011;10706;49.036;12.112;2023-04-16T04:16:18;13.20;;;5.03;;
21095;SDS011;10706;49.036;12.112;2023-04-16T04:18:43;13.87;;;5.07;;
21095;SDS011;10706;49.036;12.112;2023-04-16T04:21:09;12.93;;;4.80;;
21095;SDS011;10706;49.036;12.112;2023-04-16T04:23:35;12.67;;;4.47;;
21095;SDS011;10706;49.036;12.112;2023-04-16T04:26:01;12.33;;;4.40;;
21095;SDS011;10706;49.036;12.112;2023-04-16T04:28:29;10.57;;;4.33;;
21095;SDS011;10706;49.036;12.112;2023-04-16T04:30:57;12.37;;;4.60;;
21095;SDS011;10706;49.036;12.112;2023-04-16T04:33:26;11.60;;;4.73;;
21095;SDS011;10706;49.036;12.112;2023-04-16T04:35:53;13.60;;;4.23;;
21095;SDS011;10706;49.036;12.112;2023-04-16T04:38:19;11.50;;;4.10;;
21095;SDS011;10706;49.036;12.112;2023-04-16T04:40:49;14.23;;;5.00;;
21095;SDS011;10706;49.036;12.112;2023-04-16T04:43:16;10.03;;;4.13;;
21095;SDS011;10706;49.036;12.112;2023-04-16T04:45:43;12.07;;;4.77;;
21095;SDS011;10706;49.036;12.112;2023-04-16T04:48:09;12.33;;;4.80;;
21095;SDS011;10706;49.036;12.112;2023-04-16T04:50:35;11.70;;;4.37;;
21095;SDS011;10706;49.036;12.112;2023-04-16T04:53:01;13.73;;;4.43;;
21095;SDS011;10706;49.036;12.112;2023-04-16T04:55:28;10.60;;;4.00;;
21095;SDS011;10706;49.036;12.112;2023-04-16T04:57:54;9.63;;;3.83;;
21095;SDS011;10706;49.036;12.112;2023-04-16T05:00:20;9.20;;;3.83;;
21095;SDS011;10706;49.036;12.112;2023-04-16T05:02:46;9.73;;;3.73;;
21095;SDS011;10706;49.036;12.112;2023-04-16T05:05:11;9.47;;;4.00;;
21095;SDS011;10706;49.036;12.112;2023-04-16T05:07:37;9.43;;;3.67;;
21095;SDS011;10706;49.036;12.112;2023-04-16T05:10:03;7.97;;;3.33;;
21095;SDS011;10706;49.036;12.112;2023-04-16T05:12:29;7.00;;;3.40;;
21095;SDS011;10706;49.036;12.112;2023-04-16T05:14:55;8.97;;;3.37;;
21095;SDS011;10706;49.036;12.112;2023-04-16T05:17:20;7.03;;;3.20;;
21095;SDS011;10706;49.036;12.112;2023-04-16T05:19:46;9.20;;;3.80;;
21095;SDS011;10706;49.036;12.112;2023-04-16T05:22:12;9.53;;;3.53;;
21095;SDS011;10706;49.036;12.112;2023-04-16T05:24:38;13.50;;;4.17;;
21095;SDS011;10706;49.036;12.112;2023-04-16T05:27:03;9.33;;;3.93;;
21095;SDS011;10706;49.036;12.112;2023-04-16T05:29:29;8.97;;;3.57;;
21095;SDS011;10706;49.036;12.112;2023-04-16T05:31:55;10.17;;;4.03;;
21095;SDS011;10706;49.036;12.112;2023-04-16T05:34:21;11.27;;;3.97;;
21095;SDS011;10706;49.036;12.112;2023-04-16T05:36:46;9.37;;;4.17;;
21095;SDS011;10706;49.036;12.112;2023-04-16T05:39:12;8.27;;;3.77;;
21095;SDS011;10706;49.036;12.112;2023-04-16T05:41:38;11.10;;;3.90;;
21095;SDS011;10706;49.036;12.112;2023-04-16T05:44:03;12.90;;;4.07;;
21095;SDS011;10706;49.036;12.112;2023-04-16T05:46:29;11.53;;;4.13;;
21095;SDS011;10706;49.036;12.112;2023-04-16T05:48:55;10.10;;;3.97;;
21095;SDS011;10706;49.036;12.112;2023-04-16T05:51:21;9.33;;;3.93;;
21095;SDS011;10706;49.036;12.112;2023-04-16T05:53:48;8.17;;;3.40;;
21095;SDS011;10706;49.036;12.112;2023-04-16T05:56:14;9.00;;;3.70;;
21095;SDS011;10706;49.036;12.112;2023-04-16T05:58:40;10.10;;;3.60;;
21095;SDS011;10706;49.036;12.112;2023-04-16T06:01:05;8.63;;;3.60;;
21095;SDS011;10706;49.036;12.112;2023-04-16T06:03:31;9.03;;;3.87;;
21095;SDS011;10706;49.036;12.112;2023-04-16T06:06:00;8.93;;;3.33;;
21095;SDS011;10706;49.036;12.112;2023-04-16T06:08:25;9.53;;;3.60;;
21095;SDS011;10706;49.036;12.112;2023-04-16T06:10:51;9.43;;;3.97;;
21095;SDS011;10706;49.036;12.112;2023-04-16T06:13:17;11.43;;;4.10;;
21095;SDS011;10706;49.036;12.112;2023-04-16T06:15:43;11.27;;;4.53;;
21095;SDS011;10706;49.036;12.112;2023-04-16T06:18:09;11.23;;;4.20;;
21095;SDS011;10706;49.036;12.112;2023-04-16T06:20:34;9.53;;;3.67;;
21095;SDS011;10706;49.036;12.112;2023-04-16T06:23:00;9.33;;;4.17;;
21095;SDS011;10706;49.036;12.112;2023-04-16T06:25:26;8.37;;;3.93;;
21095;SDS011;10706;49.036;12.112;2023-04-16T06:27:52;9.50;;;3.47;;
21095;SDS011;10706;49.036;12.112;2023-04-16T06:30:17;7.87;;;3.47;;
21095;SDS011;10706;49.036;12.112;2023-04-16T06:32:44;11.27;;;3.97;;
21095;SDS011;10706;49.036;12.112;2023-04-16T06:35:10;8.27;;;3.77;;
21095;SDS011;10706;49.036;12.112;2023-04-16T06:37:36;7.57;;;3.63;;
21095;SDS011;10706;49.036;12.112;2023-04-16T06:40:03;9.53;;;3.90;;
21095;SDS011;10706;49.036;12.112;2023-04-16T06:42:29;9.80;;;3.60;;
21095;SDS011;10706;49.036;12.112;2023-04-16T06:44:55;7.37;;;3.10;;
21095;SDS011;10706;49.036;12.112;2023-04-16T06:47:21;6.83;;;3.00;;
21095;SDS011;10706;49.036;12.112;2023-04-16T06:49:47;6.00;;;3.20;;
21095;SDS011;10706;49.036;12.112;2023-04-16T06:52:13;6.00;;;2.77;;
21095;SDS011;10706;49.036;12.112;2023-04-16T06:54:39;7.10;;;3.00;;
21095;SDS011;10706;49.036;12.112;2023-04-16T06:57:05;9.77;;;4.13;;
21095;SDS011;10706;49.036;12.112;2023-04-16T06:59:30;24.02;;;8.57;;
21095;SDS011;10706;49.036;12.112;2023-04-16T07:01:56;14.88;;;5.15;;
21095;SDS011;10706;49.036;12.112;2023-04-16T07:04:24;10.90;;;4.68;;
21095;SDS011;10706;49.036;12.112;2023-04-16T07:06:50;6.13;;;3.00;;
21095;SDS011;10706;49.036;12.112;2023-04-16T07:09:16;5.97;;;2.63;;
21095;SDS011;10706;49.036;12.112;2023-04-16T07:11:42;9.23;;;2.95;;
21095;SDS011;10706;49.036;12.112;2023-04-16T07:14:08;7.15;;;2.83;;
21095;SDS011;10706;49.036;12.112;2023-04-16T07:16:34;5.25;;;2.47;;
21095;SDS011;10706;49.036;12.112;2023-04-16T07:19:01;7.10;;;2.95;;
21095;SDS011;10706;49.036;12.112;2023-04-16T07:21:27;5.05;;;2.53;;
21095;SDS011;10706;49.036;12.112;2023-04-16T07:23:53;17.05;;;8.07;;
21095;SDS011;10706;49.036;12.112;2023-04-16T07:26:19;9.88;;;5.40;;
21095;SDS011;10706;49.036;12.112;2023-04-16T07:28:44;5.30;;;2.85;;
21095;SDS011;10706;49.036;12.112;2023-04-16T07:31:10;9.13;;;4.18;;
21095;SDS011;10706;49.036;12.112;2023-04-16T07:33:36;11.32;;;4.82;;
21095;SDS011;10706;49.036;12.112;2023-04-16T07:36:02;5.78;;;2.53;;
21095;SDS011;10706;49.036;12.112;2023-04-16T07:38:28;5.05;;;2.20;;
21095;SDS011;10706;49.036;12.112;2023-04-16T07:40:54;5.47;;;2.28;;
21095;SDS011;10706;49.036;12.112;2023-04-16T07:43:20;7.43;;;2.83;;
21095;SDS011;10706;49.036;12.112;2023-04-16T07:45:46;5.50;;;2.40;;
21095;SDS011;10706;49.036;12.112;2023-04-16T07:48:12;5.50;;;2.28;;
21095;SDS011;10706;49.036;12.112;2023-04-16T07:50:38;5.78;;;2.08;;
21095;SDS011;10706;49.036;12.112;2023-04-16T07:53:03;8.70;;;2.95;;
21095;SDS011;10706;49.036;12.112;2023-04-16T07:55:31;5.88;;;2.58;;
21095;SDS011;10706;49.036;12.112;2023-04-16T07:57:57;4.65;;;2.38;;
21095;SDS011;10706;49.036;12.112;2023-04-16T08:00:22;4.45;;;2.22;;
21095;SDS011;10706;49.036;12.112;2023-04-16T08:02:48;6.50;;;2.78;;
21095;SDS011;10706;49.036;12.112;2023-04-16T08:05:14;8.45;;;2.75;;
21095;SDS011;10706;49.036;12.112;2023-04-16T08:07:40;3.75;;;2.13;;
21095;SDS011;10706;49.036;12.112;2023-04-16T08:10:06;4.00;;;2.00;;
21095;SDS011;10706;49.036;12.112;2023-04-16T08:12:32;4.18;;;2.15;;
21095;SDS011;10706;49.036;12.112;2023-04-16T08:14:59;4.40;;;2.00;;
21095;SDS011;10706;49.036;12.112;2023-04-16T08:17:24;3.95;;;2.42;;
21095;SDS011;10706;49.036;12.112;2023-04-16T08:19:52;5.00;;;2.50;;
21095;SDS011;10706;49.036;12.112;2023-04-16T08:22:18;3.63;;;2.20;;
21095;SDS011;10706;49.036;12.112;2023-04-16T08:24:43;5.38;;;2.17;;
21095;SDS011;10706;49.036;12.112;2023-04-16T08:27:09;4.78;;;2.10;;
21095;SDS011;10706;49.036;12.112;2023-04-16T08:29:36;4.35;;;2.15;;
21095;SDS011;10706;49.036;12.112;2023-04-16T08:32:01;5.32;;;2.30;;
21095;SDS011;10706;49.036;12.112;2023-04-16T08:34:27;4.40;;;2.28;;
21095;SDS011;10706;49.036;12.112;2023-04-16T08:36:53;5.72;;;2.45;;
21095;SDS011;10706;49.036;12.112;2023-04-16T08:39:20;4.35;;;2.05;;
21095;SDS011;10706;49.036;12.112;2023-04-16T08:41:46;13.35;;;3.00;;
21095;SDS011;10706;49.036;12.112;2023-04-16T08:44:29;8.90;;;2.95;;
21095;SDS011;10706;49.036;12.112;2023-04-16T08:47:05;9.43;;;3.60;;
21095;SDS011;10706;49.036;12.112;2023-04-16T08:49:33;5.53;;;2.47;;
21095;SDS011;10706;49.036;12.112;2023-04-16T08:52:06;7.70;;;3.13;;
21095;SDS011;10706;49.036;12.112;2023-04-16T08:57:43;6.68;;;2.80;;
21095;SDS011;10706;49.036;12.112;2023-04-16T09:00:17;5.68;;;2.63;;
21095;SDS011;10706;49.036;12.112;2023-04-16T09:02:43;3.90;;;2.25;;
21095;SDS011;10706;49.036;12.112;2023-04-16T09:05:11;5.35;;;2.10;;
21095;SDS011;10706;49.036;12.112;2023-04-16T09:07:43;4.07;;;2.10;;
21095;SDS011;10706;49.036;12.112;2023-04-16T09:10:10;3.92;;;2.15;;
21095;SDS011;10706;49.036;12.112;2023-04-16T09:12:39;4.65;;;2.22;;
21095;SDS011;10706;49.036;12.112;2023-04-16T09:15:07;4.80;;;1.98;;
21095;SDS011;10706;49.036;12.112;2023-04-16T09:17:35;3.80;;;1.80;;
21095;SDS011;10706;49.036;12.112;2023-04-16T09:20:04;3.13;;;1.52;;
21095;SDS011;10706;49.036;12.112;2023-04-16T09:22:33;2.63;;;1.60;;
21095;SDS011;10706;49.036;12.112;2023-04-16T09:25:00;3.33;;;1.70;;
21095;SDS011;10706;49.036;12.112;2023-04-16T09:27:25;6.55;;;2.00;;
21095;SDS011;10706;49.036;12.112;2023-04-16T09:29:52;3.92;;;1.98;;
21095;SDS011;10706;49.036;12.112;2023-04-16T09:32:19;4.95;;;1.88;;
21095;SDS011;10706;49.036;12.112;2023-04-16T09:37:26;4.32;;;1.92;;
21095;SDS011;10706;49.036;12.112;2023-04-16T09:39:59;5.68;;;2.45;;
21095;SDS011;10706;49.036;12.112;2023-04-16T09:42:30;3.67;;;2.00;;
21095;SDS011;10706;49.036;12.112;2023-04-16T09:45:01;4.88;;;2.13;;
21095;SDS011;10706;49.036;12.112;2023-04-16T09:50:07;3.45;;;1.80;;
21095;SDS011;10706;49.036;12.112;2023-04-16T09:52:38;4.43;;;2.28;;
21095;SDS011;10706;49.036;12.112;2023-04-16T09:55:04;6.03;;;2.35;;
21095;SDS011;10706;49.036;12.112;2023-04-16T09:57:30;4.03;;;2.08;;
21095;SDS011;10706;49.036;12.112;2023-04-16T10:00:03;4.90;;;2.30;;
21095;SDS011;10706;49.036;12.112;2023-04-16T10:02:31;9.65;;;3.20;;
21095;SDS011;10706;49.036;12.112;2023-04-16T10:04:59;11.75;;;3.67;;
21095;SDS011;10706;49.036;12.112;2023-04-16T10:07:33;8.95;;;3.58;;
21095;SDS011;10706;49.036;12.112;2023-04-16T10:10:00;10.80;;;4.20;;
21095;SDS011;10706;49.036;12.112;2023-04-16T10:12:28;17.83;;;6.90;;
21095;SDS011;10706;49.036;12.112;2023-04-16T10:14:56;8.35;;;2.92;;
21095;SDS011;10706;49.036;12.112;2023-04-16T10:17:22;6.15;;;2.50;;
21095;SDS011;10706;49.036;12.112;2023-04-16T10:19:49;5.80;;;2.25;;
21095;SDS011;10706;49.036;12.112;2023-04-16T10:22:15;4.75;;;2.58;;
21095;SDS011;10706;49.036;12.112;2023-04-16T10:24:41;5.15;;;2.40;;
21095;SDS011;10706;49.036;12.112;2023-04-16T10:27:07;5.18;;;2.20;;
21095;SDS011;10706;49.036;12.112;2023-04-16T10:29:33;6.00;;;2.22;;
21095;SDS011;10706;49.036;12.112;2023-04-16T10:32:00;4.95;;;2.53;;
21095;SDS011;10706;49.036;12.112;2023-04-16T10:34:27;4.88;;;2.40;;
21095;SDS011;10706;49.036;12.112;2023-04-16T10:36:53;3.40;;;2.00;;
21095;SDS011;10706;49.036;12.112;2023-04-16T10:39:23;4.70;;;2.10;;
21095;SDS011;10706;49.036;12.112;2023-04-16T10:42:05;4.78;;;2.30;;
21095;SDS011;10706;49.036;12.112;2023-04-16T10:44:32;4.80;;;2.08;;
21095;SDS011;10706;49.036;12.112;2023-04-16T10:46:58;2.42;;;1.63;;
21095;SDS011;10706;49.036;12.112;2023-04-16T10:49:24;4.35;;;2.03;;
21095;SDS011;10706;49.036;12.112;2023-04-16T10:51:58;3.22;;;1.70;;
21095;SDS011;10706;49.036;12.112;2023-04-16T10:54:46;7.75;;;1.77;;
21095;SDS011;10706;49.036;12.112;2023-04-16T10:57:16;4.97;;;2.00;;
21095;SDS011;10706;49.036;12.112;2023-04-16T10:59:44;4.35;;;2.00;;
21095;SDS011;10706;49.036;12.112;2023-04-16T11:02:13;3.65;;;1.80;;
21095;SDS011;10706;49.036;12.112;2023-04-16T11:04:42;4.07;;;1.90;;
21095;SDS011;10706;49.036;12.112;2023-04-16T11:09:56;4.82;;;2.20;;
21095;SDS011;10706;49.036;12.112;2023-04-16T11:15:05;3.20;;;1.83;;
21095;SDS011;10706;49.036;12.112;2023-04-16T11:17:38;3.30;;;2.00;;
21095;SDS011;10706;49.036;12.112;2023-04-16T11:22:43;5.78;;;1.85;;
21095;SDS011;10706;49.036;12.112;2023-04-16T11:25:09;3.28;;;1.70;;
21095;SDS011;10706;49.036;12.112;2023-04-16T11:27:36;3.47;;;1.88;;
21095;SDS011;10706;49.036;12.112;2023-04-16T11:30:03;4.07;;;2.00;;
21095;SDS011;10706;49.036;12.112;2023-04-16T11:32:32;5.15;;;2.08;;
21095;SDS011;10706;49.036;12.112;2023-04-16T11:35:13;2.50;;;1.52;;
21095;SDS011;10706;49.036;12.112;2023-04-16T11:37:42;4.00;;;1.80;;
21095;SDS011;10706;49.036;12.112;2023-04-16T11:40:09;2.92;;;1.70;;
21095;SDS011;10706;49.036;12.112;2023-04-16T11:42:36;2.95;;;1.65;;
21095;SDS011;10706;49.036;12.112;2023-04-16T11:45:07;3.55;;;1.90;;
21095;SDS011;10706;49.036;12.112;2023-04-16T11:47:45;4.13;;;1.92;;
21095;SDS011;10706;49.036;12.112;2023-04-16T11:50:22;2.95;;;1.65;;
21095;SDS011;10706;49.036;12.112;2023-04-16T11:52:53;3.38;;;1.75;;
21095;SDS011;10706;49.036;12.112;2023-04-16T11:55:27;4.32;;;1.80;;
21095;SDS011;10706;49.036;12.112;2023-04-16T11:57:52;5.30;;;1.95;;
21095;SDS011;10706;49.036;12.112;2023-04-16T12:00:18;4.72;;;1.85;;
21095;SDS011;10706;49.036;12.112;2023-04-16T12:02:45;3.78;;;1.83;;
21095;SDS011;10706;49.036;12.112;2023-04-16T12:05:32;3.78;;;1.73;;
21095;SDS011;10706;49.036;12.112;2023-04-16T12:08:03;6.32;;;2.42;;
21095;SDS011;10706;49.036;12.112;2023-04-16T12:10:34;4.32;;;2.40;;
21095;SDS011;10706;49.036;12.112;2023-04-16T12:13:16;4.10;;;2.20;;
21095;SDS011;10706;49.036;12.112;2023-04-16T12:15:43;5.07;;;2.15;;
21095;SDS011;10706;49.036;12.112;2023-04-16T12:18:13;3.65;;;1.92;;
21095;SDS011;10706;49.036;12.112;2023-04-16T12:20:40;5.82;;;2.30;;
21095;SDS011;10706;49.036;12.112;2023-04-16T12:23:08;3.95;;;2.00;;
21095;SDS011;10706;49.036;12.112;2023-04-16T12:25:46;5.57;;;2.03;;
21095;SDS011;10706;49.036;12.112;2023-04-16T12:28:13;7.80;;;2.88;;
21095;SDS011;10706;49.036;12.112;2023-04-16T12:30:50;5.43;;;2.00;;
21095;SDS011;10706;49.036;12.112;2023-04-16T12:33:17;8.93;;;2.20;;
21095;SDS011;10706;49.036;12.112;2023-04-16T12:35:45;4.97;;;2.50;;
21095;SDS011;10706;49.036;12.112;2023-04-16T12:38:11;6.03;;;2.85;;
21095;SDS011;10706;49.036;12.112;2023-04-16T12:40:39;6.43;;;2.35;;
21095;SDS011;10706;49.036;12.112;2023-04-16T12:43:05;4.60;;;2.10;;
21095;SDS011;10706;49.036;12.112;2023-04-16T12:45:32;1.92;;;1.63;;
21095;SDS011;10706;49.036;12.112;2023-04-16T12:47:58;2.55;;;1.70;;
21095;SDS011;10706;49.036;12.112;2023-04-16T12:50:24;1.80;;;1.42;;
21095;SDS011;10706;49.036;12.112;2023-04-16T12:52:50;2.80;;;1.50;;
21095;SDS011;10706;49.036;12.112;2023-04-16T12:55:16;2.95;;;1.55;;
21095;SDS011;10706;49.036;12.112;2023-04-16T12:57:43;4.65;;;2.22;;
21095;SDS011;10706;49.036;12.112;2023-04-16T13:00:09;2.72;;;1.52;;
21095;SDS011;10706;49.036;12.112;2023-04-16T13:02:36;2.55;;;1.65;;
21095;SDS011;10706;49.036;12.112;2023-04-16T13:05:02;4.70;;;1.67;;
21095;SDS011;10706;49.036;12.112;2023-04-16T13:07:28;7.50;;;2.22;;
21095;SDS011;10706;49.036;12.112;2023-04-16T13:09:56;4.57;;;1.83;;
21095;SDS011;10706;49.036;12.112;2023-04-16T13:12:21;4.82;;;1.95;;
21095;SDS011;10706;49.036;12.112;2023-04-16T13:14:47;2.97;;;1.80;;
21095;SDS011;10706;49.036;12.112;2023-04-16T13:17:13;1.95;;;1.52;;
21095;SDS011;10706;49.036;12.112;2023-04-16T13:19:39;2.20;;;1.50;;
21095;SDS011;10706;49.036;12.112;2023-04-16T13:22:05;1.70;;;1.40;;
21095;SDS011;10706;49.036;12.112;2023-04-16T13:24:30;1.42;;;1.10;;
21095;SDS011;10706;49.036;12.112;2023-04-16T13:26:56;1.63;;;1.08;;
21095;SDS011;10706;49.036;12.112;2023-04-16T13:29:22;1.83;;;1.30;;
21095;SDS011;10706;49.036;12.112;2023-04-16T13:31:48;2.45;;;1.30;;
21095;SDS011;10706;49.036;12.112;2023-04-16T13:34:14;3.05;;;1.25;;
21095;SDS011;10706;49.036;12.112;2023-04-16T13:36:39;5.65;;;1.85;;
21095;SDS011;10706;49.036;12.112;2023-04-16T13:39:05;1.55;;;1.20;;
21095;SDS011;10706;49.036;12.112;2023-04-16T13:41:38;1.25;;;1.15;;
21095;SDS011;10706;49.036;12.112;2023-04-16T13:44:04;1.55;;;1.15;;
21095;SDS011;10706;49.036;12.112;2023-04-16T13:46:30;1.88;;;1.20;;
21095;SDS011;10706;49.036;12.112;2023-04-16T13:48:56;1.02;;;0.93;;
21095;SDS011;10706;49.036;12.112;2023-04-16T13:51:22;4.13;;;1.40;;
21095;SDS011;10706;49.036;12.112;2023-04-16T13:53:49;13.02;;;3.72;;
21095;SDS011;10706;49.036;12.112;2023-04-16T13:56:14;4.13;;;1.90;;
21095;SDS011;10706;49.036;12.112;2023-04-16T13:58:40;10.70;;;2.70;;
21095;SDS011;10706;49.036;12.112;2023-04-16T14:01:06;1.30;;;1.20;;
21095;SDS011;10706;49.036;12.112;2023-04-16T14:03:33;1.55;;;1.10;;
21095;SDS011;10706;49.036;12.112;2023-04-16T14:06:01;3.08;;;1.35;;
21095;SDS011;10706;49.036;12.112;2023-04-16T14:08:28;1.70;;;1.20;;
21095;SDS011;10706;49.036;12.112;2023-04-16T14:10:54;3.22;;;1.67;;
21095;SDS011;10706;49.036;12.112;2023-04-16T14:13:21;3.88;;;1.38;;
21095;SDS011;10706;49.036;12.112;2023-04-16T14:15:47;5.70;;;3.13;;
21095;SDS011;10706;49.036;12.112;2023-04-16T14:18:13;4.55;;;1.95;;
21095;SDS011;10706;49.036;12.112;2023-04-16T14:20:39;3.33;;;1.83;;
21095;SDS011;10706;49.036;12.112;2023-04-16T14:23:05;4.22;;;1.80;;
21095;SDS011;10706;49.036;12.112;2023-04-16T14:25:31;2.58;;;1.63;;
21095;SDS011;10706;49.036;12.112;2023-04-16T14:27:58;3.22;;;1.65;;
21095;SDS011;10706;49.036;12.112;2023-04-16T14:30:24;6.22;;;2.22;;
21095;SDS011;10706;49.036;12.112;2023-04-16T14:32:50;5.45;;;1.90;;
21095;SDS011;10706;49.036;12.112;2023-04-16T14:35:16;3.13;;;1.60;;
21095;SDS011;10706;49.036;12.112;2023-04-16T14:37:42;3.55;;;1.50;;
21095;SDS011;10706;49.036;12.112;2023-04-16T14:40:08;4.60;;;1.80;;
21095;SDS011;10706;49.036;12.112;2023-04-16T14:42:39;4.55;;;1.60;;